Weather at Atlantic Trade Heliport

Public forecast

Using degrees Fahrenheit for public forecast. Weather courtesy of forecast.io.

Closest aviation weather report (METAR) to Atlantic Trade Heliport

Closest report is Worcester Regional Airport, 4.7 nm (8.8 km) W. Retrieved 2020/10/23 09:54 UTC (17 minutes ago):

KORH 230954Z 00000KT 1/2SM R11/3000V4500FT FG VV002 13/12 A3025 RMK AO2 SLP243 T01280122

Closest aviation forecast (TAF) to Atlantic Trade Heliport

Closest forecast is Worcester Regional Airport, 4.7 nm (8.8 km) W. Retrieved 2020/10/23 06:22 UTC (4 hours ago):

TAF KORH 230520Z 2306/2406 05004KT P6SM OVC006 FM230800 00000KT P6SM OVC003 FM231500 00000KT P6SM SCT003 SCT020 FM240100 16004KT P6SM BKN008 FM240500 20005KT P6SM SCT015